Time;durP1;ratioP1;P1;durP2;ratioP2;P2;SDS_P1;SDS_P2;PMS_P1;PMS_P2;Temp;Humidity;BMP_temperature;BMP_pressure;BME280_temperature;BME280_humidity;BME280_pressure;Samples;Min_cycle;Max_cycle;Signal;HPM_P1;HPM_P2
2023/09/16 00:02:07;;;;;;;4.90;3.20;;;;;;;18.40;59.56;98182.03;4995199;28;20042;-75
2023/09/16 00:04:32;;;;;;;5.90;3.60;;;;;;;18.40;59.57;98173.84;4961204;28;20018;-74
2023/09/16 00:06:59;;;;;;;4.32;3.60;;;;;;;18.41;59.48;98184.47;4961561;28;20536;-74
2023/09/16 00:09:24;;;;;;;4.03;3.28;;;;;;;18.44;59.35;98181.16;4961680;28;20085;-74
2023/09/16 00:11:50;;;;;;;3.95;3.55;;;;;;;18.46;59.06;98180.91;4977489;28;20490;-74
2023/09/16 00:14:18;;;;;;;5.25;3.25;;;;;;;18.45;59.16;98173.78;4977304;28;20050;-75
2023/09/16 00:16:45;;;;;;;4.25;3.85;;;;;;;18.53;58.72;98175.88;4948951;28;20047;-74
2023/09/16 00:19:12;;;;;;;4.20;3.80;;;;;;;18.27;58.72;98133.72;4945435;28;20044;-75
2023/09/16 00:21:39;;;;;;;4.78;3.42;;;;;;;18.46;58.90;98159.09;4994799;28;20445;-73
2023/09/16 00:24:05;;;;;;;4.57;3.53;;;;;;;18.39;58.70;98153.94;4976902;28;20033;-75
2023/09/16 00:26:34;;;;;;;4.07;3.67;;;;;;;18.57;59.14;98171.47;4994735;28;20042;-74
2023/09/16 00:29:00;;;;;;;4.03;3.65;;;;;;;18.42;59.00;98160.72;4977905;28;20037;-75
2023/09/16 00:31:25;;;;;;;5.10;3.67;;;;;;;18.42;59.12;98163.47;4977296;28;20039;-74
2023/09/16 00:33:51;;;;;;;7.13;4.00;;;;;;;18.40;59.45;98177.41;4960688;28;20030;-74
2023/09/16 00:36:16;;;;;;;3.88;3.47;;;;;;;18.29;59.86;98170.47;4976147;28;20578;-74
2023/09/16 00:38:43;;;;;;;4.30;3.90;;;;;;;18.29;59.67;98180.56;4979451;28;20371;-74
2023/09/16 00:41:08;;;;;;;5.47;3.67;;;;;;;18.15;59.94;98161.41;4977192;28;20438;-74
2023/09/16 00:43:34;;;;;;;4.53;3.63;;;;;;;18.29;59.80;98175.13;4976553;28;20058;-74
2023/09/16 00:45:59;;;;;;;3.63;3.33;;;;;;;18.34;59.74;98175.06;4977002;28;20042;-74
2023/09/16 00:48:25;;;;;;;4.30;3.90;;;;;;;18.27;59.82;98163.69;4976783;28;20037;-74
2023/09/16 00:50:51;;;;;;;3.90;3.50;;;;;;;18.28;59.53;98159.84;4976981;28;20042;-73
2023/09/16 00:53:18;;;;;;;5.60;3.53;;;;;;;18.42;59.30;98179.81;4977064;28;20062;-75
2023/09/16 00:55:45;;;;;;;4.25;3.25;;;;;;;18.44;59.37;98172.97;4976834;28;20129;-75
2023/09/16 00:58:11;;;;;;;4.60;3.50;;;;;;;18.34;59.47;98155.97;4944777;28;20030;-72
2023/09/16 01:00:37;;;;;;;3.83;3.38;;;;;;;18.37;59.65;98152.63;4960761;28;20521;-73
2023/09/16 01:03:04;;;;;;;3.70;3.40;;;;;;;18.36;59.24;98154.56;4976446;28;20065;-75
2023/09/16 01:05:30;;;;;;;4.80;3.63;;;;;;;18.42;59.27;98163.47;4977199;28;20084;-75
2023/09/16 01:07:56;;;;;;;4.43;3.75;;;;;;;18.37;59.38;98161.63;4960786;28;20034;-74
2023/09/16 01:10:22;;;;;;;4.10;3.40;;;;;;;18.40;59.47;98154.78;4976860;28;20038;-74
2023/09/16 01:12:48;;;;;;;4.32;3.45;;;;;;;18.46;59.42;98167.28;4976099;28;20030;-75
2023/09/16 01:15:15;;;;;;;4.00;3.25;;;;;;;18.47;59.39;98161.50;4976814;28;20045;-74
2023/09/16 01:18:04;;;;;;;6.57;3.70;;;;;;;18.38;59.41;98162.44;4960763;28;20029;-75
2023/09/16 01:20:30;;;;;;;4.22;3.58;;;;;;;18.31;59.97;98167.44;4944593;28;20041;-72
2023/09/16 01:22:56;;;;;;;4.47;3.45;;;;;;;18.01;60.38;98129.72;4976618;28;20022;-74
2023/09/16 01:25:26;;;;;;;4.75;3.83;;;;;;;18.07;60.79;98155.78;4960814;28;20030;-74
2023/09/16 01:27:52;;;;;;;5.22;3.88;;;;;;;17.82;61.19;98143.31;4976667;28;20045;-74
2023/09/16 01:30:17;;;;;;;4.70;4.00;;;;;;;17.83;61.35;98155.81;4976757;28;20022;-73
2023/09/16 01:32:54;;;;;;;4.25;3.58;;;;;;;17.65;61.35;98160.16;4976703;28;20045;-74
2023/09/16 01:35:21;;;;;;;6.25;3.90;;;;;;;17.52;61.93;98147.25;4960605;28;20084;-74
2023/09/16 01:37:47;;;;;;;4.70;3.70;;;;;;;17.63;61.67;98161.53;4976334;28;20393;-74
2023/09/16 01:40:14;;;;;;;3.88;3.53;;;;;;;17.62;61.99;98166.16;4976745;28;20049;-74
2023/09/16 01:42:41;;;;;;;4.93;3.60;;;;;;;17.57;62.15;98166.25;4976320;28;20026;-73
2023/09/16 01:45:07;;;;;;;4.47;3.70;;;;;;;17.58;62.33;98178.75;4976983;28;20037;-74
2023/09/16 01:47:34;;;;;;;5.10;3.90;;;;;;;17.47;62.50;98179.94;4976642;28;20030;-75
2023/09/16 01:49:59;;;;;;;4.47;4.07;;;;;;;17.34;62.67;98185.25;4960987;28;20034;-74
2023/09/16 01:52:25;;;;;;;4.10;3.80;;;;;;;17.00;63.48;98163.53;4994017;28;20041;-74
2023/09/16 01:54:50;;;;;;;4.53;4.10;;;;;;;17.16;63.22;98173.16;4976338;28;20564;-74
2023/09/16 01:57:15;;;;;;;4.20;3.72;;;;;;;17.04;63.58;98173.56;4960718;28;20457;-74
2023/09/16 01:59:41;;;;;;;4.25;3.88;;;;;;;17.11;63.95;98178.66;4960583;28;20038;-74
2023/09/16 02:02:06;;;;;;;4.40;4.00;;;;;;;17.09;63.91;98172.69;4976352;28;20018;-74
2023/09/16 02:04:32;;;;;;;4.30;3.90;;;;;;;17.03;63.99;98163.78;4993856;28;20049;-74
2023/09/16 02:06:57;;;;;;;4.13;3.70;;;;;;;17.11;63.87;98175.94;4976618;28;20033;-74
2023/09/16 02:09:23;;;;;;;5.50;3.70;;;;;;;17.09;64.22;98181.69;4976880;28;20034;-74
2023/09/16 02:11:48;;;;;;;5.15;4.30;;;;;;;17.05;64.28;98182.53;4976383;28;20397;-74
2023/09/16 02:14:18;;;;;;;5.07;3.75;;;;;;;16.99;64.57;98186.41;4976480;28;20538;-74
2023/09/16 02:16:44;;;;;;;5.45;4.20;;;;;;;16.84;64.81;98165.59;4976825;28;20038;-74
2023/09/16 02:19:11;;;;;;;4.35;3.95;;;;;;;16.89;64.87;98184.59;4960555;28;20479;-75
2023/09/16 02:21:37;;;;;;;4.45;3.97;;;;;;;16.70;64.64;98163.81;4976439;28;20026;-74
2023/09/16 02:24:03;;;;;;;4.55;4.03;;;;;;;16.77;65.03;98181.44;4960100;28;20090;-73
2023/09/16 02:26:28;;;;;;;4.47;4.07;;;;;;;16.75;64.93;98177.38;4960806;28;20066;-72
2023/09/16 02:28:54;;;;;;;4.90;4.30;;;;;;;16.59;65.04;98166.59;4960103;28;20050;-74
2023/09/16 02:31:19;;;;;;;5.65;4.22;;;;;;;16.63;64.93;98163.31;4960099;28;20069;-74
2023/09/16 02:33:44;;;;;;;5.10;3.90;;;;;;;16.74;65.25;98187.44;4959649;28;20022;-73
2023/09/16 02:36:10;;;;;;;5.43;4.28;;;;;;;16.72;64.97;98183.34;4993674;28;20077;-74
2023/09/16 02:38:35;;;;;;;5.10;3.90;;;;;;;16.68;65.43;98187.75;4962744;28;20022;-75
2023/09/16 02:41:04;;;;;;;4.85;4.07;;;;;;;16.72;65.23;98184.19;4993576;28;20053;-73
2023/09/16 02:43:32;;;;;;;4.82;3.90;;;;;;;16.71;65.20;98181.75;4960308;28;20033;-74
2023/09/16 02:45:58;;;;;;;5.05;4.57;;;;;;;16.67;65.25;98183.41;4976231;28;20026;-74
2023/09/16 02:48:23;;;;;;;5.05;4.32;;;;;;;16.59;65.01;98182.91;4976308;28;20181;-74
2023/09/16 02:50:49;;;;;;;4.50;4.07;;;;;;;16.49;65.10;98172.09;4993218;28;20138;-73
2023/09/16 02:53:16;;;;;;;4.57;4.00;;;;;;;16.51;65.18;98197.13;4975713;28;20030;-74
2023/09/16 02:55:42;;;;;;;4.38;4.05;;;;;;;16.45;65.50;98192.75;4959784;28;20409;-74
2023/09/16 02:58:07;;;;;;;8.13;4.35;;;;;;;16.39;65.83;98196.63;4995560;28;20030;-74
2023/09/16 03:00:33;;;;;;;5.38;4.45;;;;;;;16.38;65.83;98194.19;4982372;28;20505;-74
2023/09/16 03:02:59;;;;;;;4.88;4.38;;;;;;;16.03;66.18;98143.59;4982005;28;20041;-74
2023/09/16 03:05:25;;;;;;;5.65;4.47;;;;;;;16.35;65.86;98201.00;4982107;28;20410;-73
2023/09/16 03:07:51;;;;;;;5.40;4.20;;;;;;;16.23;66.42;98189.66;4982128;28;20029;-74
2023/09/16 03:10:17;;;;;;;5.20;4.38;;;;;;;16.19;66.28;98185.06;4982277;28;20042;-74
2023/09/16 03:12:43;;;;;;;4.97;4.53;;;;;;;16.20;66.83;98198.34;4957646;28;20026;-74
2023/09/16 03:15:12;;;;;;;5.10;4.57;;;;;;;16.11;66.95;98194.59;4966207;28;20034;-74
2023/09/16 03:17:37;;;;;;;5.90;4.57;;;;;;;16.04;67.58;98188.66;4986500;28;20022;-72
2023/09/16 03:20:03;;;;;;;5.38;4.45;;;;;;;15.93;67.32;98164.56;4981662;28;20490;-74
2023/09/16 03:22:29;;;;;;;5.05;4.57;;;;;;;16.09;67.31;98196.78;4981902;28;20466;-74
2023/09/16 03:24:56;;;;;;;5.88;4.57;;;;;;;16.09;68.07;98196.78;4981856;28;20026;-74
2023/09/16 03:27:22;;;;;;;5.25;4.85;;;;;;;16.00;67.53;98186.78;4962309;28;20093;-74
2023/09/16 03:29:48;;;;;;;5.10;4.60;;;;;;;16.07;67.57;98193.53;4975180;28;20117;-73
2023/09/16 03:32:13;;;;;;;5.22;4.50;;;;;;;16.05;67.67;98187.59;4962001;28;20027;-74
2023/09/16 03:34:38;;;;;;;5.78;4.97;;;;;;;15.97;67.77;98177.28;4942402;28;20121;-74
2023/09/16 03:37:04;;;;;;;5.20;4.70;;;;;;;15.99;67.69;98182.44;4981460;28;20037;-74
2023/09/16 03:39:29;;;;;;;5.35;4.80;;;;;;;15.98;67.47;98189.78;4975204;28;20037;-74
2023/09/16 03:41:55;;;;;;;5.13;4.63;;;;;;;15.81;67.93;98173.03;4966098;28;20025;-74
2023/09/16 03:44:20;;;;;;;7.75;4.60;;;;;;;15.86;67.90;98181.16;4981883;28;20077;-74
2023/09/16 03:46:48;;;;;;;5.30;4.80;;;;;;;15.74;67.83;98177.94;4981047;28;20052;-73
2023/09/16 03:49:14;;;;;;;5.05;4.38;;;;;;;15.76;67.75;98183.91;4965219;28;20588;-74
2023/09/16 03:51:40;;;;;;;5.43;4.93;;;;;;;15.58;68.16;98163.63;4945529;28;20042;-74
2023/09/16 03:54:09;;;;;;;5.00;4.50;;;;;;;15.57;68.16;98161.97;4943404;28;20030;-74
2023/09/16 03:56:35;;;;;;;4.82;4.38;;;;;;;15.60;68.26;98166.88;4980948;28;20025;-74
2023/09/16 03:59:00;;;;;;;5.82;5.05;;;;;;;15.69;68.49;98186.09;4998430;28;20123;-74
2023/09/16 04:01:26;;;;;;;4.95;4.47;;;;;;;15.63;68.65;98192.66;4964969;28;20014;-74
2023/09/16 04:03:54;;;;;;;5.45;4.95;;;;;;;15.58;68.75;98182.63;4980508;28;20038;-74
2023/09/16 04:06:20;;;;;;;5.53;4.60;;;;;;;15.43;68.98;98165.53;4981386;28;20076;-74
2023/09/16 04:08:46;;;;;;;5.75;5.15;;;;;;;15.50;68.96;98194.03;4981062;28;20062;-74
2023/09/16 04:11:11;;;;;;;5.70;4.70;;;;;;;15.37;69.06;98182.91;4977827;28;20426;-74
2023/09/16 04:13:37;;;;;;;7.32;5.10;;;;;;;15.33;69.28;98190.00;4961320;28;20062;-72
2023/09/16 04:16:03;;;;;;;6.22;5.25;;;;;;;15.30;69.30;98187.81;4977863;28;20032;-73
2023/09/16 04:18:29;;;;;;;6.38;4.82;;;;;;;15.26;69.32;98186.75;4945660;28;20121;-74
2023/09/16 04:20:55;;;;;;;5.15;4.75;;;;;;;15.14;69.67;98174.31;4961368;28;20109;-75
2023/09/16 04:23:21;;;;;;;5.70;5.20;;;;;;;15.24;69.78;98193.25;4977146;28;20046;-74
2023/09/16 04:25:56;;;;;;;5.97;5.35;;;;;;;15.13;69.80;98178.09;4961535;28;20018;-74
2023/09/16 04:28:22;;;;;;;5.63;5.07;;;;;;;15.13;70.02;98177.28;4961503;28;20505;-74
2023/09/16 04:30:49;;;;;;;5.95;4.90;;;;;;;15.18;70.24;98186.22;4957952;28;20498;-74
2023/09/16 04:33:16;;;;;;;5.22;4.75;;;;;;;15.08;70.48;98164.53;4944869;28;20040;-72
2023/09/16 04:35:44;;;;;;;5.65;4.80;;;;;;;15.15;70.79;98180.50;4995531;28;20390;-73
2023/09/16 04:38:10;;;;;;;5.88;5.38;;;;;;;15.18;70.53;98180.78;4944513;28;20125;-73
2023/09/16 04:40:39;;;;;;;5.38;4.60;;;;;;;15.13;70.30;98169.94;4992294;28;20480;-72
2023/09/16 04:43:05;;;;;;;6.35;5.05;;;;;;;15.14;70.07;98174.31;4965012;28;20150;-72
2023/09/16 04:45:31;;;;;;;5.65;5.15;;;;;;;15.07;70.53;98175.66;4945045;28;20034;-72
2023/09/16 04:47:57;;;;;;;5.95;5.00;;;;;;;15.12;70.70;98192.72;4959266;28;20047;-72
2023/09/16 04:50:23;;;;;;;5.60;5.10;;;;;;;15.11;70.74;98185.69;4961511;28;20475;-72
2023/09/16 04:52:50;;;;;;;5.07;4.50;;;;;;;14.91;70.96;98164.00;4959424;28;20027;-72
2023/09/16 04:55:16;;;;;;;7.50;5.38;;;;;;;15.00;71.49;98188.69;4976988;28;20029;-72
2023/09/16 04:57:42;;;;;;;5.72;4.97;;;;;;;14.99;71.25;98181.63;4944921;28;20066;-72
2023/09/16 05:00:08;;;;;;;6.72;5.10;;;;;;;14.96;71.85;98182.97;4960710;28;20061;-71
2023/09/16 05:02:34;;;;;;;6.50;5.18;;;;;;;14.98;71.85;98180.81;4976344;28;20371;-72
2023/09/16 05:05:00;;;;;;;5.88;5.28;;;;;;;14.99;71.81;98187.88;4960800;28;20088;-73
2023/09/16 05:07:27;;;;;;;6.20;5.60;;;;;;;14.67;71.37;98130.41;4976502;28;20046;-71
2023/09/16 05:09:52;;;;;;;6.43;5.00;;;;;;;14.95;71.81;98175.13;4976783;28;20239;-71
2023/09/16 05:12:18;;;;;;;5.70;5.05;;;;;;;14.97;71.74;98173.78;4959185;28;20499;-72
2023/09/16 05:14:45;;;;;;;5.78;5.28;;;;;;;14.94;71.68;98171.59;4993569;28;20058;-70
2023/09/16 05:17:10;;;;;;;6.13;5.63;;;;;;;14.97;71.53;98173.78;4993750;28;20042;-71
2023/09/16 05:19:36;;;;;;;6.18;5.38;;;;;;;14.95;71.70;98169.72;4960465;28;20022;-72
2023/09/16 05:22:04;;;;;;;6.53;4.88;;;;;;;14.87;71.63;98162.09;4976365;28;20034;-70
2023/09/16 05:24:33;;;;;;;5.90;5.38;;;;;;;14.88;71.41;98159.16;4956819;28;20027;-71
2023/09/16 05:26:59;;;;;;;6.70;5.80;;;;;;;14.94;72.01;98173.50;4943644;28;20042;-72
2023/09/16 05:29:25;;;;;;;6.88;5.68;;;;;;;15.03;71.85;98177.28;4976343;28;20026;-71
2023/09/16 05:31:53;;;;;;;5.85;5.25;;;;;;;15.02;71.82;98173.78;4943648;28;20070;-71
2023/09/16 05:34:18;;;;;;;6.32;5.65;;;;;;;15.00;71.94;98177.84;4975580;28;20088;-72
2023/09/16 05:36:44;;;;;;;5.70;5.20;;;;;;;15.02;72.32;98171.06;4960017;28;20038;-72
2023/09/16 05:39:10;;;;;;;5.88;5.28;;;;;;;15.00;72.04;98177.84;4956852;28;20038;-72
2023/09/16 05:41:36;;;;;;;6.88;5.47;;;;;;;14.79;72.01;98128.25;4972918;28;20042;-74
2023/09/16 05:44:01;;;;;;;6.68;5.28;;;;;;;15.22;72.01;98164.75;4959376;28;20104;-71
2023/09/16 05:46:28;;;;;;;5.63;5.13;;;;;;;15.34;71.39;98173.44;4959613;28;20453;-72
2023/09/16 05:49:06;;;;;;;5.40;4.90;;;;;;;15.41;71.52;98173.13;4975762;28;20031;-71
2023/09/16 05:51:32;;;;;;;5.68;5.03;;;;;;;15.59;71.02;98169.88;4961023;28;20066;-71
2023/09/16 05:53:57;;;;;;;5.72;5.13;;;;;;;15.68;70.89;98168.22;4992765;28;20644;-71
2023/09/16 05:56:23;;;;;;;5.88;5.22;;;;;;;15.84;70.55;98172.47;4959636;28;20073;-71
2023/09/16 05:58:51;;;;;;;6.00;5.00;;;;;;;15.96;70.05;98178.41;4960106;28;20417;-72
2023/09/16 06:01:18;;;;;;;5.70;5.00;;;;;;;15.90;70.08;98174.06;4975458;28;20038;-71
2023/09/16 06:03:43;;;;;;;5.57;4.68;;;;;;;15.91;70.10;98178.41;4975187;28;20370;-71
2023/09/16 06:06:10;;;;;;;5.30;4.80;;;;;;;16.00;69.76;98179.47;4959575;28;20046;-72
2023/09/16 06:08:36;;;;;;;6.43;5.13;;;;;;;16.01;69.64;98178.34;4959579;28;20045;-71
2023/09/16 06:11:01;;;;;;;6.45;5.28;;;;;;;16.07;69.36;98176.44;4975089;28;20482;-71
2023/09/16 06:13:27;;;;;;;5.68;4.72;;;;;;;15.99;69.32;98147.94;4955343;28;20026;-73
2023/09/16 06:15:53;;;;;;;6.50;4.80;;;;;;;16.25;69.13;98168.44;4973894;28;20699;-71
2023/09/16 06:18:18;;;;;;;5.93;4.75;;;;;;;16.31;68.86;98158.34;4959275;28;20030;-71
2023/09/16 06:20:44;;;;;;;5.95;4.93;;;;;;;16.32;68.77;98152.63;4975082;28;20569;-72
2023/09/16 06:23:09;;;;;;;6.55;4.88;;;;;;;16.43;69.05;98170.50;4958713;28;20113;-71
2023/09/16 06:25:35;;;;;;;5.30;4.75;;;;;;;16.48;69.09;98172.34;4955761;28;20450;-72
2023/09/16 06:28:03;;;;;;;5.80;4.88;;;;;;;16.46;68.94;98153.63;4959135;28;20026;-71
2023/09/16 06:30:28;;;;;;;5.38;4.88;;;;;;;16.54;69.17;98146.81;4959433;28;20081;-71
2023/09/16 06:32:54;;;;;;;6.60;5.13;;;;;;;16.79;69.39;98168.34;4954493;28;20066;-71
2023/09/16 06:35:20;;;;;;;5.82;5.22;;;;;;;16.80;69.65;98152.84;4955788;28;20038;-73
2023/09/16 06:37:45;;;;;;;6.50;4.75;;;;;;;16.98;69.60;98168.47;4947384;28;20031;-73
2023/09/16 06:40:11;;;;;;;5.55;4.80;;;;;;;16.98;69.71;98161.09;4990217;28;20505;-71
2023/09/16 06:42:36;;;;;;;7.82;5.57;;;;;;;17.12;69.10;98158.53;4974437;28;20478;-71
2023/09/16 06:45:03;;;;;;;5.43;4.78;;;;;;;17.25;69.24;98158.66;4974933;28;20045;-72
2023/09/16 06:47:28;;;;;;;5.32;4.82;;;;;;;17.25;69.33;98164.09;4992341;28;20056;-71
2023/09/16 06:49:55;;;;;;;7.72;4.75;;;;;;;17.38;68.77;98154.44;4992272;28;20558;-71
2023/09/16 06:52:22;;;;;;;5.85;4.90;;;;;;;17.44;68.02;98147.00;4958565;28;20510;-72
2023/09/16 06:54:48;;;;;;;6.20;4.82;;;;;;;17.59;67.63;98161.31;4958572;28;20046;-71
2023/09/16 06:57:14;;;;;;;5.55;5.05;;;;;;;17.57;66.64;98141.75;4974851;28;20037;-71
2023/09/16 06:59:39;;;;;;;5.10;4.50;;;;;;;17.78;66.01;98151.25;4992081;28;20034;-72
2023/09/16 07:02:05;;;;;;;6.03;4.57;;;;;;;17.79;65.22;98131.09;4991619;28;20100;-71
2023/09/16 07:04:30;;;;;;;5.15;4.50;;;;;;;17.92;65.53;98143.97;4957625;28;20046;-72
2023/09/16 07:06:56;;;;;;;7.63;4.65;;;;;;;18.07;65.12;98139.44;4974746;28;20027;-70
2023/09/16 07:09:22;;;;;;;5.55;4.43;;;;;;;18.18;65.13;98146.38;4992032;28;20038;-71
2023/09/16 07:11:47;;;;;;;4.85;4.45;;;;;;;18.23;64.42;98143.56;4974444;28;20058;-71
2023/09/16 07:14:12;;;;;;;5.32;4.55;;;;;;;18.15;64.44;98133.34;4974242;28;20117;-72
2023/09/16 07:16:40;;;;;;;5.03;4.50;;;;;;;18.43;64.49;98149.53;4991989;28;20026;-71
2023/09/16 07:19:05;;;;;;;7.07;4.68;;;;;;;18.44;64.33;98131.25;4956026;28;20410;-71
2023/09/16 07:21:31;;;;;;;5.10;4.20;;;;;;;18.68;64.48;98147.53;4955357;28;20034;-72
2023/09/16 07:24:00;;;;;;;6.47;4.80;;;;;;;18.84;64.01;98144.25;4989721;28;20494;-71
2023/09/16 07:26:29;;;;;;;5.60;4.63;;;;;;;18.93;63.70;98137.00;4958993;28;20057;-71
2023/09/16 07:28:55;;;;;;;5.00;4.50;;;;;;;19.00;63.40;98153.00;4974534;28;20089;-71
2023/09/16 07:31:21;;;;;;;5.10;4.60;;;;;;;19.06;62.99;98151.81;4974488;28;20026;-72
2023/09/16 07:33:47;;;;;;;6.70;4.70;;;;;;;19.14;63.00;98143.72;4991395;28;20088;-71
2023/09/16 07:36:12;;;;;;;5.65;5.05;;;;;;;19.06;63.19;98114.41;4974654;28;20030;-71
2023/09/16 07:38:38;;;;;;;5.70;5.10;;;;;;;19.38;63.10;98145.50;4974248;28;20058;-71
2023/09/16 07:41:03;;;;;;;6.53;4.82;;;;;;;19.51;62.58;98142.00;4958311;28;20022;-71
2023/09/16 07:43:28;;;;;;;4.95;4.47;;;;;;;19.62;62.89;98146.13;4991339;28;20038;-72
2023/09/16 07:45:54;;;;;;;4.78;4.38;;;;;;;19.73;62.49;98147.53;4995141;28;20027;-71
2023/09/16 07:48:19;;;;;;;4.85;4.35;;;;;;;19.82;62.24;98145.72;4962073;28;20513;-72
2023/09/16 07:50:45;;;;;;;5.25;4.60;;;;;;;19.90;62.39;98156.75;4995420;28;20029;-72
2023/09/16 07:53:11;;;;;;;4.90;4.50;;;;;;;20.02;61.42;98152.69;4977762;28;20089;-71
2023/09/16 07:55:38;;;;;;;4.57;4.18;;;;;;;20.15;61.32;98154.56;4978169;28;20035;-71
2023/09/16 07:58:04;;;;;;;4.88;4.40;;;;;;;20.25;60.72;98151.66;4958745;28;20487;-72
2023/09/16 08:00:29;;;;;;;4.88;4.47;;;;;;;20.29;60.50;98158.94;4937846;28;20073;-73
2023/09/16 08:02:55;;;;;;;5.20;4.65;;;;;;;20.35;59.94;98152.22;4994785;28;20479;-71
2023/09/16 08:05:20;;;;;;;4.35;3.95;;;;;;;20.42;59.52;98158.06;4977843;28;20033;-71
2023/09/16 08:07:46;;;;;;;5.05;4.60;;;;;;;20.45;59.37;98156.66;4961547;28;20104;-72
2023/09/16 08:10:11;;;;;;;5.85;4.63;;;;;;;20.56;59.14;98158.06;4958387;28;20111;-71
2023/09/16 08:12:36;;;;;;;5.45;4.20;;;;;;;20.57;59.27;98146.78;4975570;28;20521;-71
2023/09/16 08:15:03;;;;;;;6.50;4.32;;;;;;;20.78;59.36;98160.78;4977755;28;20031;-71
2023/09/16 08:17:28;;;;;;;4.57;4.18;;;;;;;20.84;59.25;98158.75;4995095;28;20049;-73
2023/09/16 08:19:53;;;;;;;4.75;4.35;;;;;;;20.87;58.91;98158.91;4977828;28;20025;-71
2023/09/16 08:22:19;;;;;;;7.00;5.20;;;;;;;20.93;58.79;98156.88;4994976;28;20038;-71
2023/09/16 08:24:44;;;;;;;4.75;4.32;;;;;;;21.04;58.68;98159.06;4977073;28;20042;-72
2023/09/16 08:27:10;;;;;;;5.55;4.60;;;;;;;21.09;58.55;98160.84;4977404;28;20030;-71
2023/09/16 08:29:35;;;;;;;5.25;4.60;;;;;;;21.08;59.01;98153.75;4977409;28;20113;-72
2023/09/16 08:32:00;;;;;;;5.18;4.10;;;;;;;21.24;59.08;98163.19;4960931;28;20061;-71
2023/09/16 08:34:26;;;;;;;7.47;4.80;;;;;;;21.33;58.96;98172.28;4976924;28;20034;-71
2023/09/16 08:36:51;;;;;;;6.95;4.90;;;;;;;21.45;58.59;98164.25;4961087;28;20506;-72
2023/09/16 08:39:16;;;;;;;5.18;4.25;;;;;;;21.52;58.38;98170.09;4977305;28;20113;-71
2023/09/16 08:41:48;;;;;;;7.63;4.65;;;;;;;21.55;58.32;98172.22;4977135;28;20026;-71
2023/09/16 08:44:14;;;;;;;4.60;4.20;;;;;;;21.62;58.00;98169.84;4960780;28;20049;-72
2023/09/16 08:46:46;;;;;;;6.03;4.72;;;;;;;21.66;58.07;98172.72;4960908;28;20049;-72
2023/09/16 08:49:13;;;;;;;6.82;4.88;;;;;;;21.75;58.25;98173.59;4976934;28;20034;-72
2023/09/16 08:51:41;;;;;;;5.20;4.70;;;;;;;21.76;58.13;98162.31;4976809;28;20036;-72
2023/09/16 08:54:07;;;;;;;6.28;5.32;;;;;;;21.81;57.75;98178.63;4993989;28;20126;-72
2023/09/16 08:56:33;;;;;;;5.20;4.70;;;;;;;21.89;58.38;98175.09;4976108;28;20077;-71
2023/09/16 08:58:59;;;;;;;5.38;4.60;;;;;;;21.96;57.63;98169.97;4994249;28;20050;-72
2023/09/16 09:01:25;;;;;;;5.82;4.43;;;;;;;22.02;57.78;98174.19;4976887;28;20022;-72
2023/09/16 09:03:50;;;;;;;6.68;4.88;;;;;;;22.10;58.01;98180.03;4976342;28;20034;-71
2023/09/16 09:06:17;;;;;;;5.13;4.50;;;;;;;22.20;58.10;98174.22;4960492;28;20026;-72
2023/09/16 09:08:42;;;;;;;5.28;4.78;;;;;;;22.31;57.89;98176.31;4960734;28;20049;-71
2023/09/16 09:11:12;;;;;;;6.63;4.97;;;;;;;22.38;57.38;98168.41;4976446;28;20038;-71
2023/09/16 09:13:38;;;;;;;7.15;5.00;;;;;;;22.45;57.26;98165.22;4976973;28;20302;-72
2023/09/16 09:16:04;;;;;;;7.47;4.93;;;;;;;22.44;57.27;98155.38;4960289;28;20526;-72
2023/09/16 09:18:30;;;;;;;7.25;4.63;;;;;;;22.58;56.85;98167.81;4976644;28;20034;-72
2023/09/16 09:20:55;;;;;;;4.93;4.43;;;;;;;22.59;56.41;98154.91;4976796;28;20041;-73
2023/09/16 09:23:21;;;;;;;5.25;4.75;;;;;;;22.67;55.90;98176.06;4960270;28;20034;-74
2023/09/16 09:25:46;;;;;;;6.03;4.70;;;;;;;22.69;56.27;98179.28;4976357;28;20065;-72
2023/09/16 09:28:13;;;;;;;5.93;4.78;;;;;;;22.79;56.47;98176.22;4976523;28;20093;-72
2023/09/16 09:30:40;;;;;;;5.00;4.38;;;;;;;22.67;55.81;98156.84;4976212;28;20077;-72
2023/09/16 09:33:11;;;;;;;5.55;4.28;;;;;;;22.89;55.42;98181.41;4991957;28;20450;-72
2023/09/16 09:35:36;;;;;;;4.63;4.10;;;;;;;22.95;55.32;98177.34;4995974;28;20443;-72
2023/09/16 09:38:02;;;;;;;4.75;4.25;;;;;;;23.03;55.33;98184.78;4976009;28;20101;-72
2023/09/16 09:40:28;;;;;;;5.28;4.40;;;;;;;23.05;55.29;98171.53;4956590;28;20193;-73
2023/09/16 09:42:57;;;;;;;4.93;4.40;;;;;;;23.19;55.53;98185.06;4986651;28;20026;-72
2023/09/16 09:45:24;;;;;;;5.82;4.50;;;;;;;23.26;54.88;98177.94;4976533;28;20052;-72
2023/09/16 09:47:52;;;;;;;5.07;4.53;;;;;;;23.32;54.18;98168.38;4959522;28;20052;-72
2023/09/16 09:50:19;;;;;;;6.03;4.43;;;;;;;23.22;54.09;98163.22;4975971;28;20034;-72
2023/09/16 09:52:52;;;;;;;4.72;4.15;;;;;;;23.31;54.33;98166.75;4975259;28;20026;-72
2023/09/16 09:55:19;;;;;;;5.85;4.72;;;;;;;23.35;54.24;98167.75;4975811;28;20046;-72
2023/09/16 09:57:47;;;;;;;6.10;4.70;;;;;;;23.41;54.53;98154.63;4975793;28;20474;-71
2023/09/16 10:00:15;;;;;;;4.97;4.47;;;;;;;23.58;54.50;98164.75;4959580;28;20045;-71
2023/09/16 10:02:41;;;;;;;4.50;4.10;;;;;;;23.65;54.06;98157.63;4975331;28;20026;-71
2023/09/16 10:05:06;;;;;;;8.02;4.32;;;;;;;23.74;53.04;98152.06;4992960;28;20445;-72
2023/09/16 10:07:32;;;;;;;7.93;4.47;;;;;;;23.68;52.96;98142.41;4975611;28;20018;-73
2023/09/16 10:09:58;;;;;;;6.40;4.20;;;;;;;23.84;52.98;98152.53;4992886;28;20038;-71
2023/09/16 10:12:23;;;;;;;4.72;4.32;;;;;;;23.94;53.11;98151.34;4975165;28;20031;-72
2023/09/16 10:14:49;;;;;;;5.38;3.97;;;;;;;24.12;53.24;98158.38;4975049;28;20042;-72
2023/09/16 10:17:15;;;;;;;5.85;4.20;;;;;;;24.19;52.52;98147.66;4959443;28;20117;-72
2023/09/16 10:19:42;;;;;;;6.68;3.63;;;;;;;24.34;51.99;98154.53;4975458;28;20082;-72
2023/09/16 10:22:08;;;;;;;4.80;3.95;;;;;;;24.29;50.96;98141.75;4959434;28;20437;-72
2023/09/16 10:24:34;;;;;;;5.28;3.88;;;;;;;24.26;51.01;98125.91;4975044;28;20434;-72
2023/09/16 10:27:12;;;;;;;5.68;3.45;;;;;;;24.55;50.50;98136.84;4975433;28;20022;-73
2023/09/16 10:29:38;;;;;;;4.20;3.80;;;;;;;24.45;50.25;98112.47;4975359;28;20034;-73
2023/09/16 10:32:03;;;;;;;3.65;3.30;;;;;;;24.65;49.87;98133.69;4984563;28;20439;-73
2023/09/16 10:34:29;;;;;;;4.22;3.40;;;;;;;24.65;49.41;98124.59;4958678;28;20042;-73
2023/09/16 10:36:54;;;;;;;5.10;3.78;;;;;;;24.74;48.94;98126.13;4975117;28;20121;-72
2023/09/16 10:39:21;;;;;;;3.63;3.33;;;;;;;24.79;48.08;98122.41;4975272;28;20042;-73
2023/09/16 10:41:46;;;;;;;4.20;3.80;;;;;;;24.93;48.12;98133.13;4976394;28;20014;-73
2023/09/16 10:44:12;;;;;;;4.60;3.47;;;;;;;25.04;48.02;98150.88;4961111;28;20100;-73
2023/09/16 10:46:38;;;;;;;3.80;3.40;;;;;;;24.92;47.30;98148.88;4975826;28;20026;-76
2023/09/16 10:49:03;;;;;;;5.25;3.40;;;;;;;24.95;46.86;98130.84;4962045;28;20030;-73
2023/09/16 10:51:36;;;;;;;4.05;3.40;;;;;;;25.02;46.97;98139.38;4946961;28;20438;-72
2023/09/16 10:54:10;;;;;;;3.83;3.50;;;;;;;25.10;47.09;98146.75;4982075;28;20092;-73
2023/09/16 10:56:40;;;;;;;4.20;3.60;;;;;;;25.15;46.65;98130.00;4974974;28;20038;-73
2023/09/16 10:59:10;;;;;;;4.55;3.50;;;;;;;25.10;46.94;98136.53;4958851;28;20038;-73
2023/09/16 11:02:28;;;;;;;3.38;3.08;;;;;;;25.13;46.61;98137.81;4975443;28;20038;-73
2023/09/16 11:04:54;;;;;;;3.75;3.38;;;;;;;25.14;47.21;98117.34;4982737;28;20046;-73
2023/09/16 11:07:19;;;;;;;4.22;3.13;;;;;;;25.21;46.99;98106.56;4974735;28;20046;-72
2023/09/16 11:09:47;;;;;;;5.30;3.15;;;;;;;25.36;46.37;98108.66;4983669;28;20038;-73
2023/09/16 11:12:12;;;;;;;5.20;3.28;;;;;;;25.44;46.06;98107.78;4974604;28;20030;-73
2023/09/16 11:14:38;;;;;;;4.00;3.15;;;;;;;25.58;46.24;98110.22;4974102;28;20041;-72
2023/09/16 11:17:15;;;;;;;4.20;3.08;;;;;;;25.70;46.33;98113.75;4991917;28;20034;-73
2023/09/16 11:19:42;;;;;;;3.20;2.90;;;;;;;25.62;45.43;98108.38;4976406;28;20038;-73
2023/09/16 11:22:08;;;;;;;3.60;3.13;;;;;;;25.65;45.36;98094.69;4978804;28;20022;-73
2023/09/16 11:24:34;;;;;;;4.20;3.22;;;;;;;25.89;45.23;98110.44;4981246;28;20459;-73
2023/09/16 11:27:00;;;;;;;5.30;3.30;;;;;;;25.84;45.08;98089.38;4979662;28;20509;-73
2023/09/16 11:29:28;;;;;;;3.50;3.20;;;;;;;25.89;45.04;98104.91;4962324;28;20046;-72
2023/09/16 11:31:54;;;;;;;6.00;3.88;;;;;;;25.95;45.64;98103.53;4996925;28;20027;-73